Historique des mesures à Cassis (13260), France
Quotidien Résumé Novembre 2, 2017 Unités:  Métrique    US   Métrique/US
« Précédent (Jour)
Suivant (Jour) »
Quotidien Hebdomadaire Mensuel Annuel Période au choix
  Maximum: Minimum: Moyenne:
Température: TemperatureC °C 13.3 °C 15.9 °C
Point de rosée: DewpointC °C 8.6 °C 11.5 °C
Humidité: Humidity % 70 % 72 %
Vitesse du vent: 0 km/h 0 km/h 0.2 km/h
Rafales: 0 km/h - -
Vent:- - South
Pression: PressurehPa hPa 1013.8 hPa -
Précipitations: 0.0 mm    
Historical Graphs
 
 
Mesures pour : Novembre 2, 2017
Heure Temperature Point de rosée Pression Vent Vitesse du vent Rafales Humidité Pluie (par heure) Conditions
TemperatureC °C DewpointC °C PressurehPa hPa Calm     Humidity % HourlyPrecipMM mm SoftwareType W/m2
00:11 14.1 °C 9.9 °C 1019.5 hPa Calm     76 % 0.0 mm open2300-1.11 W/m2
01:10 14.3 °C 9.7 °C 1019.2 hPa Calm     74 % 0.0 mm open2300-1.11 W/m2
02:11 13.5 °C 8.7 °C 1018.8 hPa Calm     73 % 0.0 mm open2300-1.11 W/m2
03:10 13.3 °C 8.6 °C 1018.5 hPa Calm   2.3 km/h 73 % 0.0 mm open2300-1.11 W/m2
05:10 14.3 °C 8.9 °C 1017.8 hPa Calm     70 % 0.0 mm open2300-1.11 W/m2
06:11 14.6 °C 9.6 °C 1017.8 hPa Calm     72 % 0.0 mm open2300-1.11 W/m2
07:10 14.9 °C 9.9 °C 1017.5 hPa Calm     72 % 0.0 mm open2300-1.11 W/m2
08:11 15.3 °C 10.9 °C 1018.2 hPa Calm     75 % 0.0 mm open2300-1.11 W/m2
09:10 16.4 °C 12.3 °C 1018.2 hPa Calm     77 % 0.0 mm open2300-1.11 W/m2
10:11 17.6 °C 13.3 °C 1017.8 hPa South 2.3 km/h 8.9 km/h 76 % 0.0 mm open2300-1.11 W/m2
11:10 19.1 °C 14.3 °C 1017.8 hPa Calm     74 % 0.0 mm open2300-1.11 W/m2
12:11 19.4 °C 14.4 °C 1017.2 hPa Calm     73 % 0.0 mm open2300-1.11 W/m2
13:10 19.8 °C 14.6 °C 1016.8 hPa Calm     72 % 0.0 mm open2300-1.11 W/m2
14:11 19.3 °C 14.6 °C 1015.8 hPa Calm     74 % 0.0 mm open2300-1.11 W/m2
15:10 18.5 °C 14.4 °C 1015.5 hPa Calm     77 % 0.0 mm open2300-1.11 W/m2
16:11 18.4 °C 14.3 °C 1015.1 hPa Calm     77 % 0.0 mm open2300-1.11 W/m2
17:10 17.9 °C 13.6 °C 1014.4 hPa Calm     76 % 0.0 mm open2300-1.11 W/m2
18:11 17.3 °C 13.0 °C 1014.8 hPa Calm     76 % 0.0 mm open2300-1.11 W/m2
19:10 16.9 °C 12.8 °C 1014.8 hPa Calm     77 % 0.0 mm open2300-1.11 W/m2
20:11 16.4 °C 12.3 °C 1014.4 hPa Calm     77 % 0.0 mm open2300-1.11 W/m2
21:10 16.5 °C 12.1 °C 1014.1 hPa Calm     75 % 0.0 mm open2300-1.11 W/m2
22:11 16.6 °C 11.9 °C 1014.1 hPa Calm     74 % 0.0 mm open2300-1.11 W/m2
23:10 16.3 °C 12.3 °C 1013.8 hPa Calm     77 % 0.0 mm open2300-1.11 W/m2
Observations météo à CASSIS
WU-History script by Weather Underground - 1 mb